createdAt,value
2023-03-12T00:01:50.648Z,5.87
2023-03-12T00:06:55.188Z,9.70
2023-03-12T00:11:58.080Z,7.13
2023-03-12T00:17:00.895Z,7.43
2023-03-12T00:22:05.047Z,8.20
2023-03-12T00:27:08.337Z,7.37
2023-03-12T00:32:11.422Z,7.60
2023-03-12T00:37:15.526Z,6.03
2023-03-12T00:42:18.736Z,9.57
2023-03-12T00:47:21.533Z,6.63
2023-03-12T00:52:25.747Z,6.97
2023-03-12T00:57:28.538Z,7.47
2023-03-12T01:02:31.285Z,7.93
2023-03-12T01:07:36.285Z,6.93
2023-03-12T01:12:39.137Z,11.83
2023-03-12T01:17:41.976Z,12.37
2023-03-12T01:22:48.025Z,8.67
2023-03-12T01:27:50.835Z,9.73
2023-03-12T01:32:53.675Z,9.80
2023-03-12T01:37:58.015Z,9.27
2023-03-12T01:43:00.791Z,8.70
2023-03-12T01:48:03.634Z,8.93
2023-03-12T01:53:07.903Z,8.70
2023-03-12T01:58:11.981Z,8.40
2023-03-12T02:03:15.226Z,11.33
2023-03-12T02:08:20.115Z,8.37
2023-03-12T02:13:23.062Z,9.47
2023-03-12T02:18:26.690Z,7.87
2023-03-12T02:23:33.480Z,6.73
2023-03-12T02:28:43.913Z,8.57
2023-03-12T02:33:47.110Z,9.67
2023-03-12T02:38:51.377Z,10.57
2023-03-12T02:44:00.337Z,7.20
2023-03-12T02:49:03.412Z,10.60
2023-03-12T02:54:06.979Z,8.13
2023-03-12T02:59:13.252Z,6.20
2023-03-12T03:04:18.408Z,7.27
2023-03-12T03:09:22.244Z,5.67
2023-03-12T03:14:26.841Z,6.83
2023-03-12T03:19:29.744Z,9.73
2023-03-12T03:24:32.743Z,5.63
2023-03-12T03:29:37.023Z,7.50
2023-03-12T03:34:40.071Z,5.07
2023-03-12T03:39:42.961Z,7.80
2023-03-12T03:44:47.563Z,9.13
2023-03-12T03:49:50.853Z,7.37
2023-03-12T03:54:54.280Z,9.13
2023-03-12T04:00:03.389Z,6.83
2023-03-12T04:05:19.630Z,4.37
2023-03-12T04:10:25.457Z,10.17
2023-03-12T04:15:29.626Z,8.70
2023-03-12T04:20:33.222Z,8.70
2023-03-12T04:25:36.724Z,9.20
2023-03-12T04:30:41.158Z,6.13
2023-03-12T04:35:51.667Z,7.00
2023-03-12T04:41:01.487Z,12.37
2023-03-12T04:46:06.544Z,4.30
2023-03-12T04:51:09.840Z,3.73
2023-03-12T04:56:13.256Z,3.83
2023-03-12T05:01:24.868Z,6.70
2023-03-12T05:06:28.394Z,4.67
2023-03-12T05:11:32.590Z,3.63
2023-03-12T05:16:37.136Z,3.27
2023-03-12T05:21:41.412Z,6.40
2023-03-12T05:26:44.564Z,6.07
2023-03-12T05:31:58.438Z,4.47
2023-03-12T05:37:02.331Z,4.70
2023-03-12T05:42:06.480Z,3.57
2023-03-12T05:47:11.389Z,7.17
2023-03-12T05:52:15.895Z,5.17
2023-03-12T05:57:19.834Z,5.80
2023-03-12T06:02:24.104Z,9.63
2023-03-12T06:07:28.302Z,4.93
2023-03-12T06:12:31.165Z,4.33
2023-03-12T06:17:35.438Z,5.33
2023-03-12T06:22:39.059Z,6.67
2023-03-12T06:27:42.318Z,5.73
2023-03-12T06:32:46.813Z,8.27
2023-03-12T06:37:49.740Z,9.13
2023-03-12T06:42:52.549Z,6.37
2023-03-12T06:47:56.800Z,9.60
2023-03-12T06:52:59.696Z,6.83
2023-03-12T06:58:04.017Z,7.00
2023-03-12T07:03:08.308Z,8.83
2023-03-12T07:08:11.210Z,9.00
2023-03-12T07:13:14.241Z,8.27
2023-03-12T07:18:18.344Z,5.13
2023-03-12T07:23:21.243Z,5.57
2023-03-12T07:28:24.131Z,7.00
2023-03-12T07:33:28.352Z,9.70
2023-03-12T07:38:31.726Z,11.87
2023-03-12T07:43:34.603Z,11.40
2023-03-12T07:48:39.056Z,11.63
2023-03-12T07:53:41.910Z,10.10
2023-03-12T07:58:44.964Z,10.43
2023-03-12T08:03:50.242Z,10.97
2023-03-12T08:08:53.445Z,12.53
2023-03-12T08:13:56.479Z,10.90
2023-03-12T08:19:00.832Z,11.30
2023-03-12T08:24:03.843Z,15.87
2023-03-12T08:29:07.030Z,11.77
2023-03-12T08:34:11.534Z,13.67
2023-03-12T08:39:14.618Z,16.20
2023-03-12T08:44:17.510Z,19.77
2023-03-12T08:49:22.453Z,16.10
2023-03-12T08:54:25.383Z,15.53
2023-03-12T08:59:28.489Z,19.87
2023-03-12T09:04:32.833Z,19.67
2023-03-12T09:09:35.790Z,19.10
2023-03-12T09:20:06.915Z,31.90
2023-03-12T09:25:11.657Z,17.30
2023-03-12T09:30:16.397Z,17.97
2023-03-12T09:35:20.869Z,29.27
2023-03-12T09:40:26.023Z,17.97
2023-03-12T09:45:31.815Z,19.90
2023-03-12T09:50:40.205Z,26.13
2023-03-12T09:55:45.101Z,24.67
2023-03-12T10:00:48.050Z,24.63
2023-03-12T10:06:03.934Z,21.20
2023-03-12T10:11:13.188Z,19.13
2023-03-12T10:16:24.619Z,13.93
2023-03-12T10:21:32.346Z,33.93
2023-03-12T10:26:39.964Z,14.57
2023-03-12T10:31:49.938Z,14.10
2023-03-12T10:36:56.022Z,12.10
2023-03-12T10:42:01.582Z,22.07
2023-03-12T10:47:22.996Z,22.43
2023-03-12T10:52:27.151Z,14.60
2023-03-12T10:57:40.561Z,18.73
2023-03-12T11:02:45.739Z,20.27
2023-03-12T11:07:50.669Z,19.53
2023-03-12T11:47:44.183Z,23.13
2023-03-12T11:53:03.078Z,12.67
2023-03-12T11:58:21.521Z,29.57
2023-03-12T12:15:19.748Z,16.83
2023-03-12T12:20:30.488Z,19.57
2023-03-12T12:25:53.909Z,31.63
2023-03-12T12:31:09.887Z,20.13
2023-03-12T12:36:13.651Z,23.27
2023-03-12T12:41:18.001Z,19.63
2023-03-12T12:46:25.232Z,14.17
2023-03-12T12:51:30.498Z,25.87
2023-03-12T12:56:35.413Z,14.43
2023-03-12T13:01:40.108Z,17.67
2023-03-12T13:06:55.777Z,22.80
2023-03-12T13:11:58.637Z,30.77
2023-03-12T13:17:31.244Z,22.37
2023-03-12T13:22:46.374Z,25.07
2023-03-12T13:27:59.040Z,25.97
2023-03-12T13:33:14.643Z,22.37
2023-03-12T13:38:24.536Z,41.03
2023-03-12T13:43:52.777Z,27.20
2023-03-12T13:48:59.355Z,62.27
2023-03-12T13:54:04.397Z,22.77
2023-03-12T13:59:09.622Z,17.70
2023-03-12T14:04:18.708Z,22.60
2023-03-12T14:09:28.344Z,42.53
2023-03-12T14:14:52.279Z,21.97
2023-03-12T14:20:01.947Z,32.50
2023-03-12T14:25:07.905Z,26.10
2023-03-12T14:30:14.596Z,31.37
2023-03-12T14:35:23.318Z,18.80
2023-03-12T14:40:31.716Z,22.80
2023-03-12T14:45:41.096Z,26.03
2023-03-12T14:50:46.655Z,23.77
2023-03-12T14:55:59.746Z,34.37
2023-03-12T15:01:05.668Z,27.57
2023-03-12T15:06:16.468Z,19.57
2023-03-12T15:11:23.061Z,13.97
2023-03-12T15:16:26.043Z,18.60
2023-03-12T15:21:30.372Z,30.50
2023-03-12T15:26:37.871Z,20.37
2023-03-12T15:31:44.640Z,16.63
2023-03-12T15:36:51.521Z,24.77
2023-03-12T15:41:55.272Z,18.43
2023-03-12T15:47:04.612Z,16.90
2023-03-12T15:52:28.454Z,27.67
2023-03-12T15:57:32.057Z,21.77
2023-03-12T16:02:39.831Z,30.37
2023-03-12T16:07:44.152Z,20.70
2023-03-12T16:12:47.958Z,26.63
2023-03-12T16:17:50.729Z,25.07
2023-03-12T16:22:54.898Z,15.13
2023-03-12T16:27:59.675Z,28.90
2023-03-12T16:33:06.031Z,27.73
2023-03-12T16:38:12.514Z,28.23
2023-03-12T16:43:17.995Z,24.53
2023-03-12T16:48:23.092Z,18.70
2023-03-12T16:53:27.350Z,15.17
2023-03-12T16:58:31.367Z,35.92
2023-03-12T17:03:38.062Z,17.30
2023-03-12T17:08:42.997Z,26.23
2023-03-12T17:13:47.315Z,25.33
2023-03-12T17:18:50.147Z,33.63
2023-03-12T17:23:54.328Z,26.63
2023-03-12T17:28:57.900Z,28.67
2023-03-12T17:34:03.840Z,30.77
2023-03-12T17:39:08.135Z,27.07
2023-03-12T17:44:11.790Z,27.50
2023-03-12T17:49:14.654Z,33.73
2023-03-12T17:54:18.853Z,23.07
2023-03-12T17:59:21.664Z,25.40
2023-03-12T18:04:24.521Z,28.33
2023-03-12T18:09:28.861Z,25.97
2023-03-12T18:14:31.697Z,42.07
2023-03-12T18:19:35.707Z,36.73
2023-03-12T18:24:39.986Z,27.37
2023-03-12T18:29:42.944Z,29.23
2023-03-12T18:34:45.734Z,15.27
2023-03-12T18:39:49.990Z,21.03
2023-03-12T18:44:52.850Z,15.50
2023-03-12T18:49:55.962Z,15.30
2023-03-12T18:55:00.165Z,12.90
2023-03-12T19:00:03.513Z,16.50
2023-03-12T19:05:06.690Z,12.60
2023-03-12T19:10:12.697Z,18.97
2023-03-12T19:15:15.590Z,17.73
2023-03-12T19:20:21.499Z,24.27
2023-03-12T19:25:25.734Z,15.00
2023-03-12T19:30:30.642Z,18.77
2023-03-12T19:35:33.633Z,23.97
2023-03-12T19:40:37.802Z,22.10
2023-03-12T19:45:40.640Z,18.17
2023-03-12T19:50:44.888Z,17.33
2023-03-12T19:55:50.231Z,33.20
2023-03-12T20:00:53.046Z,19.10
2023-03-12T20:05:56.029Z,13.63
2023-03-12T20:11:07.768Z,19.90
2023-03-12T20:16:12.502Z,10.90
2023-03-12T20:21:15.362Z,10.73
2023-03-12T20:26:19.540Z,10.73
2023-03-12T20:31:22.441Z,16.17
2023-03-12T20:36:25.710Z,18.40
2023-03-12T20:41:30.789Z,21.97
2023-03-12T20:46:33.677Z,15.57
2023-03-12T20:51:36.612Z,15.33
2023-03-12T20:56:43.727Z,19.27
2023-03-12T21:01:46.710Z,24.27
2023-03-12T21:06:51.575Z,20.13
2023-03-12T21:11:56.041Z,8.37
2023-03-12T21:16:59.782Z,16.20
2023-03-12T21:22:02.712Z,13.07
2023-03-12T21:27:06.830Z,21.93
2023-03-12T21:32:09.573Z,15.37
2023-03-12T21:37:12.417Z,25.43
2023-03-12T21:42:16.564Z,11.90
2023-03-12T21:47:19.401Z,18.27
2023-03-12T21:52:22.204Z,27.63
2023-03-12T21:57:26.454Z,12.57
2023-03-12T22:02:29.516Z,16.37
2023-03-12T22:07:32.329Z,28.20
2023-03-12T22:12:36.590Z,35.40
2023-03-12T22:17:39.356Z,18.63
2023-03-12T22:22:42.133Z,16.47
2023-03-12T22:27:46.355Z,11.20
2023-03-12T22:32:49.192Z,14.50
2023-03-12T22:37:52.031Z,12.60
2023-03-12T22:42:57.442Z,17.33
2023-03-12T22:48:00.439Z,20.17
2023-03-12T22:53:03.264Z,15.23
2023-03-12T22:58:07.459Z,19.30
2023-03-12T23:03:10.276Z,24.70
2023-03-12T23:08:13.073Z,14.83
2023-03-12T23:13:17.275Z,18.87
2023-03-12T23:18:21.012Z,10.90
2023-03-12T23:23:23.793Z,27.93
2023-03-12T23:28:29.212Z,10.00
2023-03-12T23:33:33.188Z,20.07
2023-03-12T23:38:37.620Z,20.57
2023-03-12T23:43:42.077Z,18.93
2023-03-12T23:48:45.465Z,14.43
2023-03-12T23:53:50.026Z,29.17
2023-03-12T23:58:54.507Z,13.40
